メインページ
METAR-TAF:

METAR-TAF

空港 :

ポンタ・デルガダ空港

ポンタ・デルガダ, アゾレス諸島, ポルトガル

緯度: 37-44N, 経度: 025-42W, 海抜: 71m

現時点の気象観測

当レポートは38分前の05:00(UTC)に作成
西の風 27kt
気温 16°C
湿度 88%
気圧 991 hPa
視程10km以上
高度800ftの雲はほとんどない
高度1600ftの雲は散在している
高度3000ftの千切れ雲あり

METAR: LPPD 040500Z 27027KT 9999 FEW008 SCT016 BKN030 16/14 Q0991

時間: 05:38 (05:38 UTC)

予報

当レポートは6時間38分前の23:00(UTC)に作成
予報は04日の 00時(UTC)から 04日の 24時(UTC)まで有効
西の風 20kt
視程10km以上
高度1200ftの雲は散在している
高度3000ftの雲は散在している
04日の 00時(UTC)から 04日の 12時(UTC)まで一時的に
西の風 25kt、最大35ktの突風を伴う
視程: 8000m
高度600ftの雲は散在している
高度1000ftの千切れ雲あり
高度1800ftの雲はほとんどない, 積乱雲.
にわか雨
04日の 19時(UTC)から 04日の 22時(UTC)まで徐々に
西の風 12kt

TAF: LPPD 032300Z 0400/0424 27020KT 9999 SCT012 SCT030 TEMPO 0400/0412 27025G35KT 8000 SHRA SCT006 BKN010 FEW018CB BECMG 0419/0422 28012KT

4,000以上の空港の気象観測と天気予報(METAR報とTAF報)

利用可能な観測所は地図上に黄色い丸と赤い丸で示す。

丸の上にカーソルを重ねると観測所名を参照できる。

次にクリックすると気象観測と天気予報を参照できる。

マップの切り替え:黒色「×」印の緑ボタンをクリックして拡大、「-」印の緑ボタンをクリックして縮小、緑色の三角印をクリックして隣りの地図に切り替え


METAR-TAF: